KAGS

Augusta Regional at Bush Field Airport

Augusta, Georgia, USA
KAGS 162336Z 1700/1724 14006KT P6SM VCTS BKN025CB FM170200 18003KT P6SM VCSH OVC100 FM171000 22003KT 5SM BR SCT009 BKN015 FM171400 25006KT P6SM BKN035 FM171900 24009KT P6SM VCTS SCT050CB
Issued Valid From Valid To
Jul-16 @ 23:36 UTC
(45 minutes ago)
Jul-17 @ 00:00 UTC
(21 minutes ago)
Jul-18 @ 00:00 UTC
(in 24 hours)
Jul-17 @ 00:00 to Jul-17 @ 02:00
KAGS 162336Z 1700/1724 14006KT P6SM VCTS BKN025CB
Wind Visibility Clouds Conditions
140° at 6 knots Greater than 6 miles
  • Broken at 2,500' AGL
  • Area Thunderstorm
From Jul-17 @ 02:00 to Jul-17 @ 10:00
FM170200 18003KT P6SM VCSH OVC100
Wind Visibility Clouds
180° at 3 knots Greater than 6 miles
  • Overcast at 10,000' AGL
From Jul-17 @ 10:00 to Jul-17 @ 14:00
FM171000 22003KT 5SM BR SCT009 BKN015
Wind Visibility Clouds Conditions
220° at 3 knots 5 miles
  • Scattered at 900' AGL
  • Broken at 1,500' AGL
  • Mist
From Jul-17 @ 14:00 to Jul-17 @ 19:00
FM171400 25006KT P6SM BKN035
Wind Visibility Clouds
250° at 6 knots Greater than 6 miles
  • Broken at 3,500' AGL
From Jul-17 @ 19:00 to Jul-18 @ 00:00
FM171900 24009KT P6SM VCTS SCT050CB
Wind Visibility Clouds Conditions
240° at 9 knots Greater than 6 miles
  • Scattered at 5,000' AGL
  • Area Thunderstorm
KAGS 162336Z 1700/1724 14006KT P6SM VCTS BKN025CB FM170200 18003KT P6SM VCSH OVC100 FM171000 22003KT 5SM BR SCT009 BKN015 FM171400 25006KT P6SM BKN035 FM171900 24009KT P6SM VCTS SCT050CB
Issued Jul-16 @ 23:36 UTC
(45 minutes ago)
Valid From Jul-17 @ 00:00 UTC
(21 minutes ago)
Valid To Jul-18 @ 00:00 UTC
(in 24 hours)
Jul-17 @ 00:00 - Jul-17 @ 02:00
Wind Visibility
140° at 6 knots Greater than 6 miles
Clouds
  • Broken at 2,500' AGL
Conditions
  • Area Thunderstorm
From Jul-17 @ 02:00 - Jul-17 @ 10:00
Wind Visibility
180° at 3 knots Greater than 6 miles
Clouds
  • Overcast at 10,000' AGL
From Jul-17 @ 10:00 - Jul-17 @ 14:00
Wind Visibility
220° at 3 knots 5 miles
Clouds
  • Scattered at 900' AGL
  • Broken at 1,500' AGL
Conditions
  • Mist
From Jul-17 @ 14:00 - Jul-17 @ 19:00
Wind Visibility
250° at 6 knots Greater than 6 miles
Clouds
  • Broken at 3,500' AGL
From Jul-17 @ 19:00 - Jul-18 @ 00:00
Wind Visibility
240° at 9 knots Greater than 6 miles
Clouds
  • Scattered at 5,000' AGL
Conditions
  • Area Thunderstorm